Time;durP1;ratioP1;P1;durP2;ratioP2;P2;SDS_P1;SDS_P2;PMS_P1;PMS_P2;Temp;Humidity;BMP_temperature;BMP_pressure;BME280_temperature;BME280_humidity;BME280_pressure;Samples;Min_cycle;Max_cycle;Signal;HPM_P1;HPM_P2
2023/01/10 00:00:33;;;;;;;2.63;2.43;;;;;;;10.75;57.94;98437.97;7005671;28;20208;-82
2023/01/10 00:03:55;;;;;;;2.40;2.30;;;;;;;10.78;57.82;98464.53;7005669;28;20197;-82
2023/01/10 00:07:18;;;;;;;2.67;2.00;;;;;;;10.81;57.56;98464.06;7005013;28;20225;-82
2023/01/10 00:10:39;;;;;;;2.80;2.50;;;;;;;10.25;57.97;98414.56;7006222;28;20687;-81
2023/01/10 00:14:00;;;;;;;2.27;2.10;;;;;;;10.57;57.60;98475.59;7000430;28;20228;-81
2023/01/10 00:17:21;;;;;;;2.53;1.90;;;;;;;9.98;59.44;98456.03;6979404;28;20271;-81
2023/01/10 00:20:44;;;;;;;1.90;1.80;;;;;;;9.89;60.32;98469.91;6978183;28;20234;-81
2023/01/10 00:24:16;;;;;;;1.90;1.80;;;;;;;10.44;59.00;98482.88;6998506;28;20656;-82
2023/01/10 00:27:38;;;;;;;2.30;2.17;;;;;;;10.36;58.51;98483.97;7000840;28;20256;-81
2023/01/10 00:31:03;;;;;;;2.00;1.90;;;;;;;10.10;59.37;98473.22;7007807;28;20205;-81
2023/01/10 00:34:24;;;;;;;1.90;1.80;;;;;;;10.12;59.61;98498.13;7011847;28;20672;-82
2023/01/10 00:37:46;;;;;;;1.90;1.80;;;;;;;10.00;59.44;98488.13;7011247;28;20229;-82
2023/01/10 00:43:55;;;;;;;1.90;1.80;;;;;;;10.17;59.19;98500.97;7010279;28;20304;-82
2023/01/10 00:44:50;;;;;;;3.23;1.80;;;;;;;10.72;58.26;98505.81;6983591;28;20259;-81
2023/01/10 00:48:11;;;;;;;2.03;1.93;;;;;;;10.56;58.71;98489.31;7005443;28;20215;-80
2023/01/10 00:51:33;;;;;;;2.20;2.10;;;;;;;10.21;60.18;98512.19;7012451;28;20351;-81
2023/01/10 00:54:55;;;;;;;2.20;2.10;;;;;;;10.09;60.22;98501.22;7010756;28;20670;-81
2023/01/10 00:58:17;;;;;;;2.20;2.10;;;;;;;10.30;60.04;98527.91;7011927;28;20218;-80
2023/01/10 01:01:39;;;;;;;1.90;1.80;;;;;;;10.50;59.86;98527.88;7009072;28;20213;-81
2023/01/10 01:05:00;;;;;;;1.97;1.87;;;;;;;10.27;60.45;98524.81;7011205;28;20238;-80
2023/01/10 01:08:22;;;;;;;2.37;2.20;;;;;;;10.24;59.34;98514.44;6998433;28;20290;-80
2023/01/10 01:11:43;;;;;;;2.07;1.97;;;;;;;10.29;60.06;98541.59;7012424;28;20295;-80
2023/01/10 01:15:08;;;;;;;2.03;1.70;;;;;;;10.29;60.26;98538.91;7011711;28;20312;-80
2023/01/10 01:18:29;;;;;;;2.23;2.07;;;;;;;10.51;58.99;98546.53;6985296;28;20383;-80
2023/01/10 01:21:51;;;;;;;2.17;2.07;;;;;;;10.51;58.98;98535.75;6984433;28;20205;-80
2023/01/10 01:25:13;;;;;;;2.40;2.20;;;;;;;10.43;60.03;98562.09;6989774;28;20355;-80
2023/01/10 01:28:34;;;;;;;2.10;2.00;;;;;;;9.94;60.42;98523.97;7012064;28;20237;-81
2023/01/10 01:31:57;;;;;;;2.30;2.10;;;;;;;10.14;60.75;98584.09;7012301;28;20336;-80
2023/01/10 01:35:19;;;;;;;2.43;2.20;;;;;;;10.27;60.34;98589.50;7005481;28;20262;-80
2023/01/10 01:38:41;;;;;;;2.10;2.00;;;;;;;10.45;60.30;98601.28;7013106;28;20291;-81
2023/01/10 01:42:04;;;;;;;2.50;2.30;;;;;;;10.19;60.10;98566.28;7004484;28;20230;-80
2023/01/10 01:45:39;;;;;;;2.97;2.20;;;;;;;10.59;59.77;98627.19;7010256;28;20257;-80
2023/01/10 01:49:04;;;;;;;2.63;2.43;;;;;;;10.78;59.12;98639.81;7013219;28;20210;-80
2023/01/10 01:52:33;;;;;;;3.20;2.30;;;;;;;11.02;59.02;98654.47;7008243;28;20205;-80
2023/01/10 01:55:58;;;;;;;3.23;2.50;;;;;;;11.12;58.28;98644.06;7013609;28;20295;-82
2023/01/10 01:59:22;;;;;;;2.97;2.23;;;;;;;10.83;59.45;98658.88;7011383;28;20226;-80
2023/01/10 02:02:46;;;;;;;2.40;2.20;;;;;;;10.89;59.09;98666.13;7012900;28;20257;-80
2023/01/10 02:06:09;;;;;;;2.77;2.47;;;;;;;10.22;60.20;98675.50;7012565;28;20220;-80
2023/01/10 02:09:34;;;;;;;2.10;2.00;;;;;;;10.58;59.10;98665.13;7006382;28;20265;-81
2023/01/10 02:13:00;;;;;;;2.57;2.37;;;;;;;10.48;59.37;98681.72;6981971;28;20232;-80
2023/01/10 02:16:21;;;;;;;2.17;2.07;;;;;;;10.33;59.07;98666.81;6983695;28;20312;-80
2023/01/10 02:19:51;;;;;;;2.00;1.90;;;;;;;10.57;58.79;98704.72;6985846;28;20318;-80
2023/01/10 02:23:44;;;;;;;2.10;2.00;;;;;;;10.73;57.88;98704.31;6984154;28;20271;-80
2023/01/10 02:27:14;;;;;;;4.73;2.20;;;;;;;10.59;58.07;98709.91;7004071;28;20306;-80
2023/01/10 02:31:08;;;;;;;2.10;2.00;;;;;;;10.31;58.51;98711.97;7000391;28;20287;-80
2023/01/10 02:34:36;;;;;;;2.50;2.30;;;;;;;10.16;59.29;98730.19;7007922;28;20236;-80
2023/01/10 02:38:04;;;;;;;2.10;2.00;;;;;;;10.01;59.53;98724.94;7008398;28;20334;-81
2023/01/10 02:41:30;;;;;;;2.27;2.00;;;;;;;9.99;59.43;98720.78;7008624;28;20219;-81
2023/01/10 02:44:57;;;;;;;2.53;2.10;;;;;;;10.10;59.70;98725.63;6997924;28;20288;-81
2023/01/10 02:48:18;;;;;;;2.10;2.00;;;;;;;9.79;60.35;98734.19;7008712;28;20252;-81
2023/01/10 02:51:41;;;;;;;4.13;2.07;;;;;;;9.78;61.51;98753.22;6994530;28;20261;-81
2023/01/10 02:55:03;;;;;;;4.93;2.20;;;;;;;9.77;61.51;98756.97;7009308;28;20634;-80
2023/01/10 02:58:36;;;;;;;2.83;2.50;;;;;;;9.82;60.96;98732.97;6998717;28;20275;-81
2023/01/10 03:02:00;;;;;;;2.40;2.30;;;;;;;10.16;60.43;98754.44;7003282;28;20205;-81
2023/01/10 03:05:29;;;;;;;2.20;2.10;;;;;;;9.87;59.89;98758.25;7009360;28;20259;-81
2023/01/10 03:08:57;;;;;;;3.10;2.40;;;;;;;9.71;60.37;98737.06;7010806;28;20346;-81
2023/01/10 03:12:23;;;;;;;2.37;2.20;;;;;;;10.00;60.13;98776.31;6982808;28;20193;-81
2023/01/10 03:15:46;;;;;;;3.23;2.00;;;;;;;10.19;59.83;98797.97;6981610;28;20267;-81
2023/01/10 03:19:08;;;;;;;2.37;2.17;;;;;;;10.24;59.22;98791.97;6999694;28;20315;-81
2023/01/10 03:22:31;;;;;;;2.87;2.20;;;;;;;9.95;59.21;98811.94;7006751;28;20224;-81
2023/01/10 03:25:55;;;;;;;2.27;2.17;;;;;;;9.83;59.69;98801.94;7010375;28;20279;-81
2023/01/10 03:29:20;;;;;;;3.27;2.17;;;;;;;9.83;59.80;98824.31;7007681;28;20212;-80
2023/01/10 03:32:43;;;;;;;2.27;2.00;;;;;;;9.78;59.32;98832.16;6983457;28;20228;-80
2023/01/10 03:36:19;;;;;;;2.63;2.17;;;;;;;9.90;59.62;98846.72;6983581;28;20229;-80
2023/01/10 03:39:48;;;;;;;4.17;2.37;;;;;;;9.74;59.22;98832.75;7004061;28;20260;-81
2023/01/10 03:47:00;;;;;;;2.60;2.37;;;;;;;9.51;60.58;98875.28;6948165;28;20304;-80
2023/01/10 03:50:24;;;;;;;3.97;2.63;;;;;;;9.73;59.98;98868.75;6981770;28;20213;-81
2023/01/10 03:53:46;;;;;;;7.87;3.20;;;;;;;9.62;60.30;98858.56;7008071;28;20263;-80
2023/01/10 03:57:07;;;;;;;5.17;3.33;;;;;;;9.49;61.07;98902.38;7006476;28;20737;-80
2023/01/10 04:00:30;;;;;;;2.93;2.50;;;;;;;9.81;60.05;98888.28;6991316;28;20209;-81
2023/01/10 04:03:52;;;;;;;6.60;2.83;;;;;;;9.73;60.03;98890.31;7011244;28;20212;-80
2023/01/10 04:07:13;;;;;;;8.50;3.50;;;;;;;9.85;60.00;98894.94;7009079;28;20221;-80
2023/01/10 04:10:36;;;;;;;4.37;3.20;;;;;;;10.49;58.67;98911.66;6995440;28;20226;-80
2023/01/10 04:13:58;;;;;;;4.67;2.90;;;;;;;10.28;58.89;98918.00;7004177;28;20201;-80
2023/01/10 04:17:20;;;;;;;4.07;3.27;;;;;;;10.38;58.94;98933.78;6996751;28;20367;-80
2023/01/10 04:20:42;;;;;;;7.30;3.40;;;;;;;10.30;59.03;98926.72;6976788;28;20356;-80
2023/01/10 04:24:04;;;;;;;4.40;2.97;;;;;;;10.44;58.55;98922.19;6998502;28;20272;-81
2023/01/10 04:27:25;;;;;;;5.17;3.20;;;;;;;10.45;58.34;98913.91;7005903;28;20707;-80
2023/01/10 04:30:47;;;;;;;5.43;3.27;;;;;;;10.48;58.76;98951.28;6992825;28;20289;-80
2023/01/10 04:34:10;;;;;;;7.40;3.30;;;;;;;9.88;58.13;98867.63;6978323;28;20287;-80
2023/01/10 04:37:31;;;;;;;4.33;2.97;;;;;;;10.38;58.44;98966.13;6987068;28;20323;-80
2023/01/10 04:40:53;;;;;;;3.87;3.23;;;;;;;10.25;58.28;98963.38;7004908;28;20565;-80
2023/01/10 04:44:19;;;;;;;3.07;2.73;;;;;;;9.95;59.22;98978.06;7005987;28;20203;-81
2023/01/10 04:47:41;;;;;;;5.43;2.70;;;;;;;9.91;59.29;98972.25;7006524;28;20233;-80
2023/01/10 04:51:04;;;;;;;8.43;3.30;;;;;;;9.58;58.65;98885.03;7006003;28;20269;-80
2023/01/10 04:54:26;;;;;;;4.70;3.40;;;;;;;10.22;58.33;98977.25;7006661;28;20248;-82
2023/01/10 04:57:47;;;;;;;2.77;2.50;;;;;;;10.48;57.88;98989.00;7006074;28;20325;-80
2023/01/10 05:01:09;;;;;;;4.57;2.93;;;;;;;10.50;58.17;99011.19;7001549;28;20292;-80
2023/01/10 05:04:31;;;;;;;4.97;3.43;;;;;;;10.59;57.84;99022.66;7005041;28;20235;-80
2023/01/10 05:07:54;;;;;;;4.03;2.93;;;;;;;10.47;58.02;99037.72;7004594;28;20251;-80
2023/01/10 05:11:15;;;;;;;3.30;3.00;;;;;;;10.26;58.12;99003.59;7002136;28;20206;-80
2023/01/10 05:14:37;;;;;;;6.23;3.10;;;;;;;10.40;57.79;99034.16;7005254;28;20210;-80
2023/01/10 05:17:58;;;;;;;7.17;3.00;;;;;;;10.41;57.74;99043.91;7003963;28;20319;-81
2023/01/10 05:21:20;;;;;;;6.67;3.50;;;;;;;10.07;57.81;99009.69;6991527;28;20217;-81
2023/01/10 05:24:43;;;;;;;10.07;3.80;;;;;;;10.29;58.01;99024.78;7004456;28;20679;-80
2023/01/10 05:28:05;;;;;;;9.10;3.67;;;;;;;10.26;57.84;99052.09;7006112;28;20393;-80
2023/01/10 05:31:26;;;;;;;6.87;3.27;;;;;;;10.22;57.39;99050.00;6997015;28;20713;-80
2023/01/10 05:34:48;;;;;;;6.93;3.20;;;;;;;10.12;57.21;99050.34;6989520;28;20331;-80
2023/01/10 05:38:09;;;;;;;8.63;3.30;;;;;;;9.81;57.68;99047.16;6979122;28;20225;-81
2023/01/10 05:41:32;;;;;;;5.13;3.13;;;;;;;10.27;57.10;99074.50;6987519;28;20362;-81
2023/01/10 05:44:54;;;;;;;5.50;2.93;;;;;;;10.24;57.20;99073.03;6983169;28;20266;-81
2023/01/10 05:48:15;;;;;;;6.00;3.33;;;;;;;10.36;56.66;99076.00;6992863;28;20239;-81
2023/01/10 05:51:37;;;;;;;7.10;2.97;;;;;;;9.96;56.84;99093.69;6987100;28;20293;-81
2023/01/10 05:54:58;;;;;;;9.73;3.67;;;;;;;9.97;57.56;99097.22;6989644;28;20635;-81
2023/01/10 05:58:21;;;;;;;5.93;3.60;;;;;;;9.35;56.88;99034.31;6995177;28;20752;-81
2023/01/10 06:01:43;;;;;;;6.67;2.97;;;;;;;9.82;56.81;99104.56;6987314;28;20269;-81
2023/01/10 06:05:05;;;;;;;5.20;3.57;;;;;;;9.96;56.79;99107.16;7000083;28;20307;-82
2023/01/10 06:08:26;;;;;;;12.60;3.87;;;;;;;9.84;56.87;99114.09;6998657;28;20242;-82
2023/01/10 06:11:48;;;;;;;6.47;3.57;;;;;;;9.83;57.10;99122.38;7003966;28;20217;-82
2023/01/10 06:15:11;;;;;;;12.87;4.00;;;;;;;9.84;56.39;99116.81;7006228;28;20264;-81
2023/01/10 06:18:33;;;;;;;10.47;4.37;;;;;;;10.19;55.01;99109.66;7009231;28;20678;-82
2023/01/10 06:21:54;;;;;;;9.80;3.23;;;;;;;10.25;55.31;99117.81;7007224;28;20624;-82
2023/01/10 06:25:16;;;;;;;7.03;3.47;;;;;;;10.19;55.64;99121.28;7009476;28;20233;-82
2023/01/10 06:28:39;;;;;;;7.67;3.50;;;;;;;10.33;54.94;99124.94;7009842;28;20206;-81
2023/01/10 06:32:02;;;;;;;11.93;3.27;;;;;;;10.01;54.83;99085.03;7004031;28;20301;-81
2023/01/10 06:35:24;;;;;;;13.23;3.20;;;;;;;10.16;55.06;99118.16;7006962;28;20323;-81
2023/01/10 06:38:48;;;;;;;5.67;3.27;;;;;;;10.18;54.66;99108.00;7001704;28;20313;-81
2023/01/10 06:42:10;;;;;;;6.77;3.00;;;;;;;10.15;54.52;99162.28;6981629;28;20217;-81
2023/01/10 06:45:32;;;;;;;10.40;3.47;;;;;;;10.45;53.70;99161.09;6978944;28;20345;-82
2023/01/10 06:48:55;;;;;;;8.23;3.67;;;;;;;10.52;53.63;99160.09;6979185;28;20209;-82
2023/01/10 06:52:16;;;;;;;9.47;3.57;;;;;;;10.37;53.43;99169.31;6984211;28;20212;-80
2023/01/10 06:55:38;;;;;;;9.57;3.40;;;;;;;10.34;53.11;99183.19;7011336;28;20256;-82
2023/01/10 06:58:59;;;;;;;8.73;3.23;;;;;;;10.07;53.36;99179.41;6985407;28;20234;-81
2023/01/10 07:02:21;;;;;;;4.30;2.70;;;;;;;9.95;53.39;99178.22;6983699;28;20199;-81
2023/01/10 07:05:44;;;;;;;12.73;3.37;;;;;;;10.23;53.70;99187.25;6991845;28;20281;-79
2023/01/10 07:09:06;;;;;;;8.37;3.10;;;;;;;10.24;52.51;99177.28;7004784;28;20201;-79
2023/01/10 07:12:27;;;;;;;7.73;2.80;;;;;;;9.80;52.81;99190.91;7005003;28;20282;-79
2023/01/10 07:15:49;;;;;;;5.80;3.20;;;;;;;9.79;52.45;99204.56;7002468;28;20269;-80
2023/01/10 07:19:12;;;;;;;10.53;3.77;;;;;;;9.89;52.16;99214.00;7003206;28;20228;-81
2023/01/10 07:22:35;;;;;;;9.40;4.13;;;;;;;9.99;51.75;99205.63;7004442;28;20209;-77
2023/01/10 07:25:56;;;;;;;9.90;4.13;;;;;;;10.15;51.05;99213.50;6994380;28;20294;-79
2023/01/10 07:29:18;;;;;;;12.77;2.70;;;;;;;9.85;52.34;99233.41;7004340;28;20292;-80
2023/01/10 07:32:39;;;;;;;7.07;2.70;;;;;;;9.72;52.34;99247.56;7007195;28;20216;-80
2023/01/10 07:36:02;;;;;;;4.03;2.80;;;;;;;9.82;52.44;99245.44;7006859;28;20285;-83
2023/01/10 07:39:25;;;;;;;12.77;3.00;;;;;;;9.87;52.81;99204.44;7009022;28;20316;-83
2023/01/10 07:42:47;;;;;;;9.53;3.17;;;;;;;10.30;52.69;99262.75;7010518;28;20217;-86
2023/01/10 07:46:10;;;;;;;7.77;3.13;;;;;;;10.51;52.65;99265.44;7012153;28;20224;-82
2023/01/10 07:49:35;;;;;;;6.23;2.80;;;;;;;10.58;52.31;99253.69;7011864;28;20212;-83
2023/01/10 07:52:57;;;;;;;8.30;3.60;;;;;;;10.74;52.92;99271.47;6978916;28;20232;-78
2023/01/10 07:56:19;;;;;;;10.33;3.47;;;;;;;11.14;51.39;99255.38;6978263;28;20254;-80
2023/01/10 07:59:42;;;;;;;9.60;3.20;;;;;;;11.27;49.72;99305.91;6997286;28;20236;-83
2023/01/10 08:03:04;;;;;;;7.13;3.70;;;;;;;10.54;50.97;99297.41;6978345;28;21062;-85
2023/01/10 08:06:26;;;;;;;6.53;3.33;;;;;;;10.73;50.85;99296.75;6980645;28;20223;-81
2023/01/10 08:09:47;;;;;;;8.53;3.40;;;;;;;10.60;51.14;99308.25;6987461;28;20613;-83
2023/01/10 08:13:11;;;;;;;11.90;3.87;;;;;;;10.74;50.76;99323.53;7000239;28;20284;-84
2023/01/10 08:16:33;;;;;;;8.17;3.47;;;;;;;10.33;51.57;99327.88;6996659;28;20308;-85
2023/01/10 08:19:54;;;;;;;10.43;3.73;;;;;;;10.78;51.11;99324.81;7002796;28;20234;-84
2023/01/10 08:23:16;;;;;;;7.10;3.50;;;;;;;10.48;51.39;99312.50;7003947;28;20683;-84
2023/01/10 08:26:37;;;;;;;7.70;3.00;;;;;;;10.93;50.67;99330.97;7000042;28;20263;-85
2023/01/10 08:30:00;;;;;;;6.27;3.13;;;;;;;10.49;51.55;99316.00;7003860;28;20205;-84
2023/01/10 08:33:23;;;;;;;9.67;3.50;;;;;;;10.57;51.88;99327.50;6991973;28;20286;-83
2023/01/10 08:36:45;;;;;;;6.20;3.00;;;;;;;10.59;51.25;99341.66;6999080;28;20361;-82
2023/01/10 08:40:08;;;;;;;5.73;2.87;;;;;;;10.70;50.77;99333.03;7003104;28;20240;-83
2023/01/10 08:43:29;;;;;;;8.73;3.33;;;;;;;10.92;50.94;99347.34;6979870;28;20218;-83
2023/01/10 08:46:53;;;;;;;6.10;3.10;;;;;;;10.49;51.35;99353.75;6985157;28;20367;-83
2023/01/10 08:50:15;;;;;;;8.67;3.30;;;;;;;10.61;50.28;99352.22;7006892;28;20208;-83
2023/01/10 08:53:43;;;;;;;7.33;2.90;;;;;;;10.73;50.94;99358.78;7010619;28;20689;-84
2023/01/10 08:57:04;;;;;;;8.20;3.27;;;;;;;10.69;51.35;99368.31;7005831;28;20231;-84
2023/01/10 09:00:26;;;;;;;6.63;2.93;;;;;;;11.06;49.87;99365.31;7010497;28;20253;-84
2023/01/10 09:03:49;;;;;;;9.17;3.70;;;;;;;10.68;50.82;99369.34;7002242;28;20230;-85
2023/01/10 09:07:10;;;;;;;7.03;3.00;;;;;;;10.86;50.08;99384.03;7001772;28;20316;-84
2023/01/10 09:10:32;;;;;;;5.83;2.93;;;;;;;10.68;50.61;99388.22;6997431;28;20285;-86
2023/01/10 09:13:53;;;;;;;7.80;3.47;;;;;;;10.80;50.12;99392.88;6996129;28;20238;-81
2023/01/10 09:17:15;;;;;;;5.40;2.93;;;;;;;10.57;50.19;99380.63;6981525;28;20703;-81
2023/01/10 09:20:39;;;;;;;5.77;3.37;;;;;;;10.45;51.08;99379.44;7002982;28;20226;-84
2023/01/10 09:24:00;;;;;;;10.43;3.50;;;;;;;11.03;49.67;99392.72;7008279;28;20292;-82
2023/01/10 09:27:22;;;;;;;6.47;2.87;;;;;;;11.08;49.96;99417.22;6992253;28;20233;-81
2023/01/10 09:30:44;;;;;;;7.00;2.53;;;;;;;10.74;50.26;99404.44;6999559;28;20639;-82
2023/01/10 09:34:06;;;;;;;8.83;3.00;;;;;;;11.14;50.05;99419.16;6998850;28;20264;-86
2023/01/10 09:37:29;;;;;;;7.23;3.20;;;;;;;11.27;49.33;99408.50;7005388;28;20307;-84
2023/01/10 09:41:00;;;;;;;5.77;2.63;;;;;;;11.50;49.75;99431.50;7006951;28;20288;-83
2023/01/10 09:44:35;;;;;;;7.93;3.30;;;;;;;11.67;49.07;99430.22;6980013;28;20205;-84
2023/01/10 09:48:00;;;;;;;8.70;3.00;;;;;;;11.41;48.91;99394.06;6985457;28;20202;-83
2023/01/10 09:51:31;;;;;;;10.37;5.60;;;;;;;11.52;49.36;99424.03;6999622;28;20208;-82
2023/01/10 09:54:56;;;;;;;11.83;4.87;;;;;;;11.37;49.88;99436.81;7007831;28;20389;-83
2023/01/10 09:58:26;;;;;;;7.97;2.80;;;;;;;11.35;49.90;99452.38;7004550;28;20212;-85
2023/01/10 10:02:02;;;;;;;10.80;2.97;;;;;;;10.65;50.55;99392.13;7016638;28;20212;-84
2023/01/10 10:05:25;;;;;;;8.87;2.83;;;;;;;10.37;51.58;99350.75;6995249;28;20229;-83
2023/01/10 10:08:48;;;;;;;8.20;2.73;;;;;;;11.28;51.50;99450.66;7008532;28;20806;-81
2023/01/10 10:12:24;;;;;;;6.70;3.80;;;;;;;11.24;52.10;99425.91;7005170;28;20197;-83
2023/01/10 10:15:49;;;;;;;13.13;5.20;;;;;;;11.56;52.11;99456.91;6999326;28;20225;-84
2023/01/10 10:19:20;;;;;;;13.47;5.70;;;;;;;11.32;52.48;99449.22;7002773;28;20294;-82
2023/01/10 10:23:13;;;;;;;;;;;;;;;;;;;;;
2023/01/10 10:26:36;;;;;;;6.43;2.97;;;;;;;11.38;52.49;99446.56;7002356;28;20221;-84
2023/01/10 10:30:32;;;;;;;6.53;3.37;;;;;;;11.24;52.17;99431.31;7009621;28;20282;-85
2023/01/10 10:34:00;;;;;;;5.27;2.80;;;;;;;11.07;52.57;99438.00;7009063;28;20232;-84
2023/01/10 10:37:24;;;;;;;5.23;2.80;;;;;;;11.02;53.01;99434.19;7010425;28;20245;-87
2023/01/10 10:40:47;;;;;;;3.83;2.63;;;;;;;11.32;52.91;99447.34;7003063;28;20230;-83
2023/01/10 10:44:23;;;;;;;6.33;3.20;;;;;;;11.20;52.51;99440.81;7005436;28;20229;-83
2023/01/10 10:47:51;;;;;;;9.10;2.80;;;;;;;11.33;53.05;99435.53;7011722;28;20363;-82
2023/01/10 10:51:16;;;;;;;5.07;2.80;;;;;;;11.34;51.77;99418.28;7010644;28;20197;-87
2023/01/10 10:54:38;;;;;;;6.60;2.50;;;;;;;11.02;52.93;99442.28;7006537;28;20294;-81
2023/01/10 10:58:00;;;;;;;6.57;4.30;;;;;;;10.71;53.94;99450.69;6997038;28;20752;-83
2023/01/10 11:01:22;;;;;;;4.83;2.70;;;;;;;11.02;52.57;99431.50;6982186;28;20237;-79
2023/01/10 11:04:47;;;;;;;21.97;10.83;;;;;;;11.11;52.92;99435.75;6980283;28;20230;-79
2023/01/10 11:08:11;;;;;;;10.60;4.27;;;;;;;10.69;53.03;99406.88;6981314;28;20261;-84
2023/01/10 11:11:35;;;;;;;8.80;3.13;;;;;;;10.78;52.91;99415.69;6994622;28;20207;-86
2023/01/10 11:14:57;;;;;;;6.77;2.60;;;;;;;10.62;53.94;99392.50;7001575;28;20245;-83
2023/01/10 11:18:27;;;;;;;4.07;2.57;;;;;;;10.91;53.21;99410.41;7010470;28;20213;-88
2023/01/10 11:21:56;;;;;;;4.23;2.20;;;;;;;11.05;52.62;99448.13;6996606;28;20736;-80
2023/01/10 11:25:22;;;;;;;7.93;2.63;;;;;;;11.01;52.18;99446.00;7000890;28;20226;-81
2023/01/10 11:28:44;;;;;;;4.33;3.10;;;;;;;11.27;52.22;99436.31;7009405;28;20657;-82
2023/01/10 11:32:14;;;;;;;6.43;2.37;;;;;;;11.94;51.00;99452.84;6993929;28;20202;-86
2023/01/10 11:35:40;;;;;;;7.47;2.70;;;;;;;11.94;51.00;99456.41;6992718;28;20237;-84
2023/01/10 11:39:15;;;;;;;4.93;3.03;;;;;;;12.24;49.79;99446.19;7013832;28;20239;-84
2023/01/10 11:42:37;;;;;;;6.53;2.63;;;;;;;10.98;53.46;99460.72;6999022;28;20297;-85
2023/01/10 11:46:01;;;;;;;8.00;2.83;;;;;;;11.06;54.73;99433.63;7006860;28;20378;-83
2023/01/10 11:49:31;;;;;;;4.33;2.57;;;;;;;11.22;53.96;99440.63;7010991;28;20199;-79
2023/01/10 11:53:05;;;;;;;7.17;2.90;;;;;;;10.89;53.50;99331.53;7014716;28;20232;-85
2023/01/10 11:56:33;;;;;;;6.37;3.27;;;;;;;11.91;51.88;99447.84;7000986;28;20231;-85
2023/01/10 11:59:57;;;;;;;7.00;3.33;;;;;;;11.66;51.46;99417.75;7012453;28;20222;-85
2023/01/10 12:03:25;;;;;;;13.53;5.80;;;;;;;12.26;51.35;99449.50;6988525;28;20217;-84
2023/01/10 12:06:49;;;;;;;7.10;3.53;;;;;;;12.50;50.10;99444.44;7007359;28;20217;-85
2023/01/10 12:10:20;;;;;;;8.03;4.33;;;;;;;11.87;50.94;99368.22;7001880;28;20202;-84
2023/01/10 12:13:48;;;;;;;5.27;2.83;;;;;;;12.24;50.85;99406.47;6990674;28;20208;-84
2023/01/10 12:17:17;;;;;;;5.77;2.73;;;;;;;12.11;50.44;99371.25;6985756;28;20232;-84
2023/01/10 12:20:44;;;;;;;3.60;2.17;;;;;;;12.49;50.01;99415.72;6986353;28;20230;-84
2023/01/10 12:24:11;;;;;;;8.77;3.10;;;;;;;12.31;50.95;99426.25;6993655;28;20201;-84
2023/01/10 12:27:32;;;;;;;5.67;2.83;;;;;;;12.42;49.53;99393.22;7006249;28;20604;-84
2023/01/10 12:31:24;;;;;;;;;;;;;;;;;;;;;
2023/01/10 12:34:58;;;;;;;4.00;2.73;;;;;;;12.38;49.68;99400.06;7016968;28;20209;-84
2023/01/10 12:46:09;;;;;;;3.37;2.50;;;;;;;12.12;49.81;99391.84;7010245;28;20229;-84
2023/01/10 12:49:39;;;;;;;5.93;2.50;;;;;;;12.35;49.34;99383.41;6990943;28;20193;-84
2023/01/10 12:53:14;;;;;;;7.30;2.80;;;;;;;12.52;47.77;99382.03;6991780;28;20297;-84
2023/01/10 12:56:44;;;;;;;7.33;2.63;;;;;;;12.13;49.13;99369.19;6989707;28;20222;-83
2023/01/10 13:00:10;;;;;;;6.50;3.67;;;;;;;12.31;49.63;99379.44;7002166;28;20604;-84
2023/01/10 13:03:38;;;;;;;4.10;2.67;;;;;;;12.14;47.85;99315.94;7014946;28;20186;-84
2023/01/10 13:07:03;;;;;;;4.20;2.40;;;;;;;12.56;47.45;99373.28;7003478;28;20228;-84
2023/01/10 13:10:49;;;;;;;5.87;2.40;;;;;;;11.85;48.52;99379.22;7016132;28;20212;-84
2023/01/10 13:14:17;;;;;;;5.70;2.60;;;;;;;10.70;48.95;99307.94;7019739;28;20841;-84
2023/01/10 13:17:54;;;;;;;4.47;2.37;;;;;;;11.74;48.49;99376.25;7017671;28;20303;-83
2023/01/10 13:21:26;;;;;;;8.53;2.53;;;;;;;12.26;47.36;99369.25;7000119;28;20226;-83
2023/01/10 13:25:16;;;;;;;3.37;2.20;;;;;;;12.17;48.04;99369.63;7005338;28;20202;-83
2023/01/10 13:28:44;;;;;;;10.33;2.77;;;;;;;11.83;47.46;99357.00;6992305;28;20202;-83
2023/01/10 13:32:18;;;;;;;5.57;2.50;;;;;;;11.35;47.03;99328.19;7016391;28;20198;-85
2023/01/10 13:35:42;;;;;;;5.47;3.27;;;;;;;12.04;46.42;99346.06;7005815;28;20260;-86
2023/01/10 13:39:08;;;;;;;9.20;4.97;;;;;;;12.38;46.41;99367.63;7001812;28;20573;-85
2023/01/10 13:46:34;;;;;;;5.63;2.17;;;;;;;12.08;45.94;99368.09;7006704;28;20750;-86
2023/01/10 13:50:27;;;;;;;6.67;2.53;;;;;;;11.98;46.63;99379.28;7010953;28;20198;-84
2023/01/10 14:02:31;;;;;;;4.93;2.20;;;;;;;11.96;45.46;99378.66;6903340;28;20228;-83
2023/01/10 14:05:53;;;;;;;5.03;2.63;;;;;;;11.79;45.23;99390.81;6904743;28;20251;-83
2023/01/10 14:09:36;;;;;;;3.57;2.33;;;;;;;11.72;46.61;99395.38;6916036;28;20227;-83
2023/01/10 14:13:07;;;;;;;3.73;2.73;;;;;;;11.62;45.71;99388.66;6913285;28;20207;-82
2023/01/10 14:16:34;;;;;;;6.03;2.43;;;;;;;11.83;46.39;99399.38;6907829;28;20224;-82
2023/01/10 14:20:02;;;;;;;3.97;2.90;;;;;;;11.82;45.98;99374.25;6913265;28;20355;-82
2023/01/10 14:23:33;;;;;;;7.90;2.87;;;;;;;11.71;45.72;99385.59;6923309;28;20192;-83
2023/01/10 14:26:58;;;;;;;6.00;2.80;;;;;;;12.18;45.09;99382.09;6909658;28;20749;-81
2023/01/10 14:30:22;;;;;;;3.97;2.20;;;;;;;12.50;42.60;99378.66;6915535;28;20347;-83
2023/01/10 14:33:45;;;;;;;4.53;2.57;;;;;;;12.19;43.67;99381.91;6942794;28;20277;-83
2023/01/10 14:37:09;;;;;;;5.13;2.77;;;;;;;11.79;43.65;99395.38;6987909;28;20638;-83
2023/01/10 14:40:39;;;;;;;4.50;2.87;;;;;;;12.33;42.74;99374.69;6989813;28;20218;-83
2023/01/10 14:44:03;;;;;;;6.50;2.63;;;;;;;12.60;42.47;99382.69;6989268;28;20561;-83
2023/01/10 14:47:30;;;;;;;6.67;2.80;;;;;;;12.57;41.24;99357.91;6989457;28;20218;-83
2023/01/10 14:50:52;;;;;;;7.20;3.20;;;;;;;11.97;43.68;99385.72;6987196;28;20201;-83
2023/01/10 14:54:14;;;;;;;4.57;2.70;;;;;;;12.52;41.05;99372.03;6991750;28;20308;-82
2023/01/10 14:57:36;;;;;;;5.00;2.07;;;;;;;12.00;41.95;99369.13;6987230;28;20309;-82
2023/01/10 15:01:01;;;;;;;5.77;2.20;;;;;;;11.77;42.78;99351.53;7004088;28;20232;-83
2023/01/10 15:04:26;;;;;;;5.97;2.20;;;;;;;11.96;42.77;99370.56;6987783;28;20202;-82
2023/01/10 15:07:48;;;;;;;5.80;2.37;;;;;;;11.25;43.48;99313.34;6984542;28;20218;-82
2023/01/10 15:11:14;;;;;;;4.07;2.10;;;;;;;12.07;42.95;99361.03;7005454;28;20213;-82
2023/01/10 15:14:37;;;;;;;2.83;2.03;;;;;;;11.92;42.50;99338.75;7009307;28;20799;-82
2023/01/10 15:18:03;;;;;;;5.53;2.23;;;;;;;11.54;42.47;99245.63;7010802;28;20207;-82
2023/01/10 15:21:27;;;;;;;8.33;2.50;;;;;;;11.80;42.53;99346.56;7012227;28;20244;-82
2023/01/10 15:24:58;;;;;;;8.73;3.33;;;;;;;11.65;42.66;99331.53;7011305;28;20212;-82
2023/01/10 15:28:20;;;;;;;9.90;3.80;;;;;;;11.80;42.75;99254.72;7012366;28;20228;-82
2023/01/10 15:31:43;;;;;;;5.60;2.70;;;;;;;12.29;42.32;99314.78;7013381;28;20201;-82
2023/01/10 15:35:07;;;;;;;5.20;2.40;;;;;;;12.28;42.65;99328.50;6990653;28;20230;-83
2023/01/10 15:38:33;;;;;;;4.50;2.70;;;;;;;12.02;42.64;99325.66;6987277;28;20607;-82
2023/01/10 15:41:59;;;;;;;6.83;2.73;;;;;;;12.10;43.32;99317.41;7000547;28;20236;-82
2023/01/10 15:45:37;;;;;;;5.67;2.57;;;;;;;12.24;43.23;99313.69;7009130;28;20221;-82
2023/01/10 15:49:24;;;;;;;4.87;2.57;;;;;;;12.15;43.38;99296.00;7016387;28;20247;-82
2023/01/10 15:52:50;;;;;;;6.13;2.63;;;;;;;12.18;43.18;99309.94;7016690;28;20232;-82
2023/01/10 15:56:29;;;;;;;4.37;3.10;;;;;;;11.93;43.39;99294.47;7002091;28;20221;-83
2023/01/10 15:59:51;;;;;;;4.63;2.93;;;;;;;12.03;43.21;99281.41;7015852;28;20224;-83
2023/01/10 16:03:22;;;;;;;6.70;2.90;;;;;;;11.69;42.23;99222.88;7011511;28;20204;-83
2023/01/10 16:06:44;;;;;;;6.23;3.00;;;;;;;12.16;42.10;99303.06;7014163;28;20221;-83
2023/01/10 16:10:09;;;;;;;6.53;3.20;;;;;;;11.50;42.77;99198.44;7013246;28;20205;-83
2023/01/10 16:13:34;;;;;;;3.77;2.83;;;;;;;12.04;42.34;99296.59;6985330;28;20206;-83
2023/01/10 16:17:23;;;;;;;5.47;2.80;;;;;;;11.81;43.00;99302.28;6985612;28;20302;-82
2023/01/10 16:24:55;;;;;;;6.37;2.90;;;;;;;11.74;43.36;99282.53;6978524;28;20232;-82
2023/01/10 16:28:18;;;;;;;4.47;2.70;;;;;;;11.86;43.05;99283.63;6985670;28;20238;-85
2023/01/10 16:31:42;;;;;;;4.73;2.93;;;;;;;11.30;43.81;99268.56;7002874;28;20330;-78
2023/01/10 16:35:04;;;;;;;7.00;3.00;;;;;;;10.69;46.11;99295.50;7008468;28;20224;-78
2023/01/10 16:38:43;;;;;;;5.37;2.77;;;;;;;10.75;45.20;99294.72;7010969;28;20204;-83